Time;durP1;ratioP1;P1;durP2;ratioP2;P2;SDS_P1;SDS_P2;PMS_P1;PMS_P2;Temp;Humidity;BMP_temperature;BMP_pressure;BME280_temperature;BME280_humidity;BME280_pressure;Samples;Min_cycle;Max_cycle;Signal;HPM_P1;HPM_P2
2023/12/21 00:01:33;;;;;;;3.53;2.50;;;7.80;99.90;;;;;;5001819;28;20569;-66
2023/12/21 00:04:02;;;;;;;9.67;3.10;;;7.90;99.90;;;;;;5001990;28;20555;-67
2023/12/21 00:06:31;;;;;;;5.90;2.50;;;7.90;99.90;;;;;;5001421;28;20844;-67
2023/12/21 00:08:59;;;;;;;7.73;2.70;;;7.90;99.90;;;;;;4999394;28;20496;-67
2023/12/21 00:11:27;;;;;;;6.17;2.27;;;8.00;99.90;;;;;;4998313;28;20473;-67
2023/12/21 00:13:55;;;;;;;7.07;2.40;;;8.00;99.90;;;;;;5002044;28;20473;-67
2023/12/21 00:16:24;;;;;;;9.00;2.57;;;8.10;99.90;;;;;;5001842;28;20507;-67
2023/12/21 00:18:53;;;;;;;6.73;2.33;;;8.10;99.90;;;;;;4997835;28;20499;-66
2023/12/21 00:21:21;;;;;;;6.97;2.63;;;8.20;99.90;;;;;;5001965;28;20480;-67
2023/12/21 00:23:49;;;;;;;7.70;2.77;;;8.20;99.90;;;;;;4997978;28;21104;-67
2023/12/21 00:26:17;;;;;;;5.17;2.50;;;8.30;99.90;;;;;;5001392;28;20567;-67
2023/12/21 00:28:45;;;;;;;6.33;2.57;;;8.30;99.90;;;;;;4997556;28;21036;-67
2023/12/21 00:31:13;;;;;;;9.40;2.60;;;8.30;99.90;;;;;;5001165;28;20475;-67
2023/12/21 00:33:42;;;;;;;10.53;3.80;;;8.30;99.90;;;;;;5001715;28;20476;-67
2023/12/21 00:36:16;;;;;;;8.27;2.20;;;8.30;99.90;;;;;;5001344;28;20464;-67
2023/12/21 00:38:44;;;;;;;13.50;3.00;;;8.30;99.90;;;;;;5005585;28;20566;-67
2023/12/21 00:41:12;;;;;;;7.43;2.53;;;8.30;99.90;;;;;;5019894;28;20926;-66
2023/12/21 00:43:40;;;;;;;12.07;2.83;;;8.40;99.90;;;;;;5003915;28;20532;-67
2023/12/21 00:46:08;;;;;;;9.13;2.90;;;8.40;99.90;;;;;;5001546;28;20531;-67
2023/12/21 00:48:36;;;;;;;12.80;2.30;;;8.40;99.90;;;;;;5002033;28;20504;-67
2023/12/21 00:51:07;;;;;;;9.10;2.30;;;8.40;99.90;;;;;;5000372;28;20526;-67
2023/12/21 00:53:35;;;;;;;6.20;2.30;;;8.40;99.90;;;;;;4999613;28;20496;-67
2023/12/21 00:56:03;;;;;;;10.10;2.70;;;8.40;99.90;;;;;;5000694;28;20591;-67
2023/12/21 00:58:31;;;;;;;6.63;2.53;;;8.50;99.90;;;;;;4999849;28;20555;-67
2023/12/21 01:00:59;;;;;;;8.77;2.37;;;8.50;99.90;;;;;;4998563;28;20499;-67
2023/12/21 01:03:27;;;;;;;10.13;3.20;;;8.50;99.90;;;;;;4999125;28;20913;-67
2023/12/21 01:05:55;;;;;;;10.93;2.50;;;8.50;99.90;;;;;;4991085;28;20468;-67
2023/12/21 01:08:24;;;;;;;9.03;2.97;;;8.50;99.90;;;;;;4998094;28;20475;-67
2023/12/21 01:10:52;;;;;;;11.63;3.00;;;8.50;99.90;;;;;;4997662;28;20496;-68
2023/12/21 01:13:21;;;;;;;9.87;2.37;;;8.50;99.90;;;;;;4996451;28;20530;-67
2023/12/21 01:15:49;;;;;;;8.63;2.23;;;8.50;99.90;;;;;;4997786;28;20468;-67
2023/12/21 01:18:17;;;;;;;6.87;2.43;;;8.50;99.90;;;;;;4999405;28;20562;-67
2023/12/21 01:20:46;;;;;;;4.90;2.20;;;8.50;99.90;;;;;;4997612;28;21003;-67
2023/12/21 01:23:14;;;;;;;5.87;2.17;;;8.50;99.90;;;;;;4999394;28;21168;-67
2023/12/21 01:25:43;;;;;;;7.50;2.03;;;8.50;99.90;;;;;;4996933;28;20581;-67
2023/12/21 01:28:11;;;;;;;5.40;1.60;;;8.50;99.90;;;;;;4998185;28;20568;-67
2023/12/21 01:30:39;;;;;;;4.77;1.57;;;8.50;99.90;;;;;;4996025;28;20520;-67
2023/12/21 01:33:07;;;;;;;10.30;2.13;;;8.50;99.90;;;;;;5001307;28;20476;-67
2023/12/21 01:35:35;;;;;;;4.63;2.00;;;8.50;99.90;;;;;;4998244;28;20563;-67
2023/12/21 01:38:04;;;;;;;6.07;2.10;;;8.50;99.90;;;;;;4999173;28;21032;-67
2023/12/21 01:40:32;;;;;;;6.53;1.83;;;8.50;99.90;;;;;;4997838;28;20563;-67
2023/12/21 01:43:01;;;;;;;10.03;1.97;;;8.50;99.90;;;;;;5001494;28;20472;-67
2023/12/21 01:45:29;;;;;;;4.17;1.40;;;8.40;99.90;;;;;;4998407;28;20500;-67
2023/12/21 01:47:57;;;;;;;9.07;2.60;;;8.40;99.90;;;;;;4995913;28;20476;-67
2023/12/21 01:50:26;;;;;;;4.80;1.40;;;8.40;99.90;;;;;;4996776;28;20519;-67
2023/12/21 01:52:55;;;;;;;9.60;2.30;;;8.40;99.90;;;;;;4991348;28;20469;-67
2023/12/21 01:55:24;;;;;;;5.67;2.37;;;8.50;99.90;;;;;;4998627;28;20504;-67
2023/12/21 01:57:52;;;;;;;7.93;1.70;;;8.50;99.90;;;;;;4994823;28;20976;-67
2023/12/21 02:00:22;;;;;;;5.97;3.50;;;8.50;99.90;;;;;;4997589;28;20566;-67
2023/12/21 02:02:51;;;;;;;8.60;2.40;;;8.50;99.90;;;;;;4998891;28;20478;-67
2023/12/21 02:05:20;;;;;;;8.40;1.83;;;8.50;99.90;;;;;;4997704;28;20888;-67
2023/12/21 02:07:48;;;;;;;9.40;2.50;;;8.50;99.90;;;;;;4992744;28;20558;-67
2023/12/21 02:10:16;;;;;;;5.87;1.83;;;8.50;99.90;;;;;;4981269;28;20501;-67
2023/12/21 02:12:44;;;;;;;7.37;1.90;;;8.50;99.90;;;;;;4977141;28;20496;-67
2023/12/21 02:15:13;;;;;;;6.80;2.23;;;8.50;99.90;;;;;;4977573;28;20523;-68
2023/12/21 02:17:46;;;;;;;9.23;2.40;;;8.50;99.90;;;;;;4979307;28;21028;-67
2023/12/21 02:20:15;;;;;;;10.87;1.90;;;8.50;99.90;;;;;;4976869;28;20497;-67
2023/12/21 02:22:45;;;;;;;8.80;2.53;;;8.50;99.90;;;;;;4974712;28;20509;-67
2023/12/21 02:25:15;;;;;;;5.83;2.40;;;8.50;99.90;;;;;;4977524;28;20830;-67
2023/12/21 02:27:43;;;;;;;6.80;2.17;;;8.60;99.90;;;;;;4977977;28;20852;-67
2023/12/21 02:30:12;;;;;;;8.23;2.00;;;8.60;99.90;;;;;;4978420;28;20916;-68
2023/12/21 02:32:40;;;;;;;5.80;1.90;;;8.50;99.90;;;;;;4978867;28;20544;-67
2023/12/21 02:35:08;;;;;;;6.00;2.03;;;8.60;99.90;;;;;;4979188;28;20478;-67
2023/12/21 02:37:36;;;;;;;7.20;1.73;;;8.50;99.90;;;;;;4976500;28;20572;-67
2023/12/21 02:40:05;;;;;;;6.83;2.03;;;8.50;99.90;;;;;;4972170;28;20899;-67
2023/12/21 02:42:35;;;;;;;3.40;1.20;;;8.50;99.90;;;;;;4978771;28;20484;-66
2023/12/21 02:45:03;;;;;;;6.63;2.00;;;8.50;99.90;;;;;;4979407;28;20503;-67
2023/12/21 02:47:31;;;;;;;5.30;2.27;;;8.50;99.90;;;;;;4978306;28;20564;-66
2023/12/21 02:49:59;;;;;;;5.50;1.63;;;8.50;99.90;;;;;;4977613;28;20532;-66
2023/12/21 02:52:27;;;;;;;7.00;2.43;;;8.50;99.90;;;;;;4984061;28;20498;-66
2023/12/21 02:54:55;;;;;;;4.23;2.00;;;8.50;99.90;;;;;;4998952;28;20466;-67
2023/12/21 02:57:23;;;;;;;11.10;2.40;;;8.50;99.90;;;;;;4981815;28;20476;-67
2023/12/21 02:59:52;;;;;;;5.33;1.90;;;8.50;99.90;;;;;;4976921;28;20580;-67
2023/12/21 03:02:20;;;;;;;6.40;2.03;;;8.60;99.90;;;;;;4977645;28;20581;-66
2023/12/21 03:04:48;;;;;;;7.83;2.43;;;8.60;99.90;;;;;;4978264;28;20807;-67
2023/12/21 03:07:16;;;;;;;7.73;2.13;;;8.50;99.90;;;;;;4978401;28;21072;-67
2023/12/21 03:09:44;;;;;;;4.00;2.33;;;8.50;99.90;;;;;;4976799;28;20492;-66
2023/12/21 03:12:12;;;;;;;6.40;2.37;;;8.50;99.90;;;;;;4978995;28;20473;-67
2023/12/21 03:14:40;;;;;;;6.70;2.53;;;8.60;99.90;;;;;;4977271;28;20485;-67
2023/12/21 03:17:10;;;;;;;7.30;2.57;;;8.60;99.90;;;;;;4977166;28;20477;-67
2023/12/21 03:19:38;;;;;;;10.40;2.80;;;8.60;99.90;;;;;;4977504;28;20493;-67
2023/12/21 03:22:06;;;;;;;11.80;3.10;;;8.60;99.90;;;;;;4978192;28;20477;-67
2023/12/21 03:24:34;;;;;;;9.73;3.27;;;8.60;99.90;;;;;;4976780;28;20494;-67
2023/12/21 03:27:03;;;;;;;8.00;3.43;;;8.60;99.90;;;;;;4977060;28;20560;-67
2023/12/21 03:29:31;;;;;;;7.80;2.90;;;8.60;99.90;;;;;;4978624;28;20486;-67
2023/12/21 03:31:59;;;;;;;8.97;3.40;;;8.60;99.90;;;;;;4976487;28;21075;-67
2023/12/21 03:34:28;;;;;;;9.90;4.17;;;8.60;99.90;;;;;;4976889;28;20910;-67
2023/12/21 03:36:56;;;;;;;11.13;3.87;;;8.60;99.90;;;;;;4977678;28;20475;-67
2023/12/21 03:39:24;;;;;;;8.30;3.73;;;8.70;99.90;;;;;;4977929;28;20481;-67
2023/12/21 03:41:52;;;;;;;8.47;3.63;;;8.70;99.90;;;;;;4978273;28;20527;-67
2023/12/21 03:44:21;;;;;;;9.93;3.80;;;8.70;99.90;;;;;;4976380;28;20469;-66
2023/12/21 03:46:49;;;;;;;6.83;3.30;;;8.60;99.90;;;;;;4980415;28;20468;-67
2023/12/21 03:49:17;;;;;;;11.00;3.50;;;8.70;99.90;;;;;;4978850;28;20861;-67
2023/12/21 03:51:46;;;;;;;10.03;2.87;;;8.70;99.90;;;;;;4981242;28;20481;-68
2023/12/21 03:54:14;;;;;;;14.57;3.00;;;8.70;99.90;;;;;;4979048;28;20468;-67
2023/12/21 03:56:42;;;;;;;8.83;3.17;;;8.70;99.90;;;;;;4983336;28;20472;-67
2023/12/21 03:59:12;;;;;;;8.43;3.23;;;8.70;99.90;;;;;;4975611;28;20563;-66
2023/12/21 04:01:40;;;;;;;8.50;3.30;;;8.70;99.90;;;;;;4979600;28;20468;-67
2023/12/21 04:04:08;;;;;;;5.23;2.80;;;8.70;99.90;;;;;;4982679;28;20473;-66
2023/12/21 04:06:36;;;;;;;10.77;3.50;;;8.70;99.90;;;;;;4981364;28;20502;-66
2023/12/21 04:09:05;;;;;;;6.43;2.80;;;8.70;99.90;;;;;;4979990;28;20569;-67
2023/12/21 04:11:33;;;;;;;7.93;2.57;;;8.70;99.90;;;;;;4973202;28;20555;-66
2023/12/21 04:14:01;;;;;;;6.47;3.20;;;8.70;99.90;;;;;;4981625;28;20541;-67
2023/12/21 04:16:29;;;;;;;4.20;2.57;;;8.70;99.90;;;;;;4979378;28;20466;-66
2023/12/21 04:18:58;;;;;;;7.23;2.70;;;8.70;99.90;;;;;;4980610;28;20489;-67
2023/12/21 04:21:27;;;;;;;3.80;1.77;;;8.70;99.90;;;;;;4980965;28;20474;-67
2023/12/21 04:23:55;;;;;;;4.63;2.10;;;8.70;99.90;;;;;;4980162;28;20470;-67
2023/12/21 04:26:24;;;;;;;8.87;1.93;;;8.70;99.90;;;;;;4979101;28;20506;-67
2023/12/21 04:28:52;;;;;;;3.37;1.63;;;8.70;99.90;;;;;;4979898;28;20501;-67
2023/12/21 04:31:20;;;;;;;4.33;1.97;;;8.70;99.90;;;;;;4975713;28;20557;-67
2023/12/21 04:33:50;;;;;;;4.03;1.77;;;8.70;99.90;;;;;;4981284;28;20512;-67
2023/12/21 04:36:19;;;;;;;2.47;1.67;;;8.70;99.90;;;;;;4980235;28;20564;-67
2023/12/21 04:38:52;;;;;;;4.83;2.07;;;8.70;99.90;;;;;;4980022;28;20553;-66
2023/12/21 04:41:21;;;;;;;2.60;1.70;;;8.70;99.90;;;;;;4981306;28;20477;-66
2023/12/21 04:43:50;;;;;;;2.80;1.93;;;8.70;99.90;;;;;;4981092;28;20478;-67
2023/12/21 04:46:19;;;;;;;2.10;1.70;;;8.70;99.90;;;;;;4980062;28;20524;-66
2023/12/21 04:48:47;;;;;;;4.73;2.77;;;8.70;99.90;;;;;;4981295;28;20501;-67
2023/12/21 04:51:16;;;;;;;4.33;2.43;;;8.70;99.90;;;;;;4980898;28;20505;-67
2023/12/21 04:53:44;;;;;;;3.00;2.00;;;8.70;99.90;;;;;;4981665;28;20556;-66
2023/12/21 04:56:12;;;;;;;4.70;2.60;;;8.70;99.90;;;;;;4977988;28;20476;-67
2023/12/21 04:58:40;;;;;;;2.47;2.10;;;8.70;99.90;;;;;;4978774;28;20493;-66
2023/12/21 05:01:10;;;;;;;2.87;2.20;;;8.70;99.90;;;;;;4975940;28;20477;-67
2023/12/21 05:03:38;;;;;;;2.70;1.83;;;8.70;99.90;;;;;;4979975;28;20473;-66
2023/12/21 05:06:06;;;;;;;3.10;1.90;;;8.70;99.90;;;;;;4988791;28;20523;-70
2023/12/21 05:08:34;;;;;;;1.60;1.50;;;8.70;99.90;;;;;;4999100;28;20572;-66
2023/12/21 05:11:02;;;;;;;2.33;1.67;;;8.70;99.90;;;;;;4985340;28;20572;-67
2023/12/21 05:13:31;;;;;;;1.70;1.53;;;8.70;99.90;;;;;;4979712;28;20505;-67
2023/12/21 05:16:00;;;;;;;1.70;1.40;;;8.70;99.90;;;;;;4979237;28;20482;-66
2023/12/21 05:18:30;;;;;;;3.80;1.70;;;8.70;99.90;;;;;;4980855;28;20469;-67
2023/12/21 05:20:58;;;;;;;1.63;1.53;;;8.70;99.90;;;;;;4980088;28;20476;-67
2023/12/21 05:23:26;;;;;;;2.30;1.70;;;8.70;99.90;;;;;;4979690;28;20507;-67
2023/12/21 05:25:53;;;;;;;1.50;1.10;;;8.70;99.90;;;;;;4979647;28;21037;-67
2023/12/21 05:28:21;;;;;;;2.10;1.23;;;8.70;99.90;;;;;;4980417;28;20506;-67
2023/12/21 05:30:51;;;;;;;2.03;1.37;;;8.70;99.90;;;;;;4980199;28;20489;-67
2023/12/21 05:33:19;;;;;;;1.67;1.57;;;8.70;99.90;;;;;;4978227;28;21053;-67
2023/12/21 05:35:48;;;;;;;1.20;1.10;;;8.80;99.90;;;;;;4980017;28;21096;-67
2023/12/21 05:38:16;;;;;;;1.27;1.10;;;8.80;99.90;;;;;;4979358;28;20476;-68
2023/12/21 05:40:44;;;;;;;1.67;1.20;;;8.70;99.90;;;;;;4978512;28;21023;-67
2023/12/21 05:43:12;;;;;;;1.97;1.77;;;8.70;99.90;;;;;;4980566;28;20479;-67
2023/12/21 05:45:40;;;;;;;1.20;1.10;;;8.80;99.90;;;;;;4979998;28;20520;-68
2023/12/21 05:48:08;;;;;;;1.53;1.27;;;8.80;99.90;;;;;;4981140;28;20473;-68
2023/12/21 05:50:37;;;;;;;1.40;1.30;;;8.80;99.90;;;;;;4977079;28;20493;-67
2023/12/21 05:53:07;;;;;;;2.77;1.30;;;8.80;99.90;;;;;;4973734;28;20573;-67
2023/12/21 05:55:35;;;;;;;1.67;1.40;;;8.80;99.90;;;;;;4975911;28;20557;-68
2023/12/21 05:58:03;;;;;;;1.43;1.00;;;8.80;99.90;;;;;;4979707;28;20493;-68
2023/12/21 06:00:31;;;;;;;1.73;1.40;;;8.80;99.90;;;;;;4979412;28;20589;-68
2023/12/21 06:02:59;;;;;;;1.20;1.10;;;8.80;99.90;;;;;;4976908;28;20480;-68
2023/12/21 06:05:27;;;;;;;1.30;1.03;;;8.80;99.90;;;;;;4972092;28;20484;-68
2023/12/21 06:07:54;;;;;;;1.40;1.30;;;8.80;99.90;;;;;;4978104;28;20611;-68
2023/12/21 06:10:24;;;;;;;1.00;1.00;;;8.80;99.90;;;;;;4978872;28;20772;-68
2023/12/21 06:12:52;;;;;;;1.27;0.93;;;8.80;99.90;;;;;;4974026;28;20477;-68
2023/12/21 06:15:20;;;;;;;1.30;1.23;;;8.80;99.90;;;;;;4978573;28;20994;-67
2023/12/21 06:17:48;;;;;;;1.30;1.20;;;8.80;99.90;;;;;;4976860;28;20576;-67
2023/12/21 06:20:16;;;;;;;2.27;1.27;;;8.80;99.90;;;;;;4974782;28;21015;-67
2023/12/21 06:22:44;;;;;;;1.40;1.30;;;8.80;99.90;;;;;;4977422;28;20833;-68
2023/12/21 06:25:13;;;;;;;1.97;1.23;;;8.80;99.90;;;;;;4978207;28;20474;-67
2023/12/21 06:27:42;;;;;;;1.20;1.10;;;8.80;99.90;;;;;;4973949;28;20927;-67
2023/12/21 06:30:11;;;;;;;1.50;1.40;;;8.80;99.90;;;;;;4983945;28;21028;-67
2023/12/21 06:32:40;;;;;;;1.43;1.10;;;8.80;99.90;;;;;;4993716;28;20473;-67
2023/12/21 06:35:09;;;;;;;1.40;1.30;;;8.80;99.90;;;;;;4998477;28;20482;-68
2023/12/21 06:37:37;;;;;;;1.20;1.20;;;8.80;99.90;;;;;;4997725;28;20534;-68
2023/12/21 06:40:08;;;;;;;2.10;1.90;;;8.80;99.90;;;;;;4996332;28;20519;-68
2023/12/21 06:42:36;;;;;;;3.00;2.80;;;8.70;99.90;;;;;;4999408;28;20858;-68
2023/12/21 06:45:07;;;;;;;3.03;2.60;;;8.80;99.90;;;;;;4999059;28;20540;-67
2023/12/21 06:47:35;;;;;;;2.70;2.50;;;8.70;99.90;;;;;;4996723;28;20887;-68
2023/12/21 06:50:03;;;;;;;3.00;2.80;;;8.80;99.90;;;;;;4994192;28;20500;-68
2023/12/21 06:52:31;;;;;;;2.50;2.30;;;8.80;99.90;;;;;;4989250;28;21007;-67
2023/12/21 06:55:00;;;;;;;2.70;2.50;;;8.80;99.90;;;;;;4991657;28;20875;-68
2023/12/21 06:57:28;;;;;;;2.50;2.30;;;8.80;99.90;;;;;;4999026;28;20468;-68
2023/12/21 06:59:56;;;;;;;2.50;2.30;;;8.80;99.90;;;;;;4997707;28;20484;-68
2023/12/21 07:02:25;;;;;;;3.20;2.27;;;8.80;99.90;;;;;;4997950;28;20568;-68
2023/12/21 07:04:53;;;;;;;2.03;1.93;;;8.90;99.90;;;;;;4998327;28;20472;-68
2023/12/21 07:07:21;;;;;;;2.37;2.17;;;8.90;99.90;;;;;;4997529;28;20498;-68
2023/12/21 07:09:49;;;;;;;2.30;2.10;;;8.80;99.90;;;;;;4997456;28;20492;-67
2023/12/21 07:12:19;;;;;;;1.87;1.77;;;8.80;99.90;;;;;;4998014;28;20559;-67
2023/12/21 07:14:47;;;;;;;1.93;1.83;;;8.90;99.90;;;;;;4994638;28;20566;-67
2023/12/21 07:17:16;;;;;;;1.77;1.67;;;8.90;99.90;;;;;;4999649;28;20472;-68
2023/12/21 07:19:45;;;;;;;2.30;1.90;;;8.90;99.90;;;;;;5005396;28;20511;-67
2023/12/21 07:22:13;;;;;;;2.00;1.90;;;8.90;99.90;;;;;;5012885;28;20469;-67
2023/12/21 07:24:41;;;;;;;2.50;2.30;;;8.90;99.90;;;;;;5000332;28;20479;-67
2023/12/21 07:27:09;;;;;;;2.20;2.00;;;8.90;99.90;;;;;;5002768;28;20877;-67
2023/12/21 07:29:37;;;;;;;2.80;2.30;;;8.90;99.90;;;;;;4999875;28;20563;-68
2023/12/21 07:32:05;;;;;;;2.20;2.00;;;8.90;99.90;;;;;;4999651;28;20481;-67
2023/12/21 07:34:33;;;;;;;1.90;1.80;;;8.90;99.90;;;;;;4994825;28;20555;-68
2023/12/21 07:37:03;;;;;;;2.10;2.00;;;8.90;99.90;;;;;;4996200;28;20607;-68
2023/12/21 07:39:31;;;;;;;2.10;1.90;;;8.90;99.90;;;;;;5001497;28;20866;-68
2023/12/21 07:41:59;;;;;;;2.00;1.80;;;8.90;99.90;;;;;;5000047;28;20579;-67
2023/12/21 07:44:27;;;;;;;2.40;2.20;;;8.90;99.90;;;;;;4998201;28;20551;-68
2023/12/21 07:46:55;;;;;;;2.33;2.13;;;8.90;99.90;;;;;;5001069;28;20496;-68
2023/12/21 07:49:24;;;;;;;1.90;1.80;;;8.90;99.90;;;;;;4999265;28;20507;-68
2023/12/21 07:51:52;;;;;;;2.07;1.97;;;8.90;99.90;;;;;;5000440;28;20995;-68
2023/12/21 07:54:21;;;;;;;1.80;1.70;;;8.90;99.90;;;;;;5002234;28;20566;-68
2023/12/21 07:56:49;;;;;;;1.60;1.50;;;8.90;99.90;;;;;;4997237;28;20904;-67
2023/12/21 07:59:18;;;;;;;1.83;1.73;;;8.90;99.90;;;;;;4996883;28;20522;-67
2023/12/21 08:01:46;;;;;;;2.33;2.13;;;8.90;99.90;;;;;;4994522;28;20868;-67
2023/12/21 08:04:16;;;;;;;1.80;1.70;;;8.90;99.90;;;;;;5000670;28;20472;-68
2023/12/21 08:06:44;;;;;;;1.67;1.57;;;8.90;99.90;;;;;;5000707;28;20479;-67
2023/12/21 08:09:12;;;;;;;1.53;1.40;;;8.90;99.90;;;;;;4999701;28;20545;-67
2023/12/21 08:11:42;;;;;;;1.77;1.43;;;8.90;99.90;;;;;;5000459;28;20483;-68
2023/12/21 08:14:10;;;;;;;1.53;1.40;;;8.90;99.90;;;;;;4998898;28;20559;-68
2023/12/21 08:16:38;;;;;;;1.67;1.57;;;9.00;99.90;;;;;;4993372;28;20472;-68
2023/12/21 08:19:06;;;;;;;1.37;1.27;;;9.00;99.90;;;;;;4991944;28;20500;-67
2023/12/21 08:21:34;;;;;;;1.13;1.07;;;9.00;99.90;;;;;;4996341;28;20472;-67
2023/12/21 08:24:03;;;;;;;1.30;1.20;;;9.00;99.90;;;;;;5001106;28;20829;-67
2023/12/21 08:26:31;;;;;;;1.33;1.23;;;9.00;99.90;;;;;;5000125;28;20502;-67
2023/12/21 08:29:01;;;;;;;1.33;1.03;;;9.10;99.90;;;;;;4999728;28;20484;-67
2023/12/21 08:31:30;;;;;;;1.00;1.00;;;9.10;99.90;;;;;;4996378;28;20539;-68
2023/12/21 08:33:58;;;;;;;1.30;1.20;;;9.10;99.90;;;;;;4999440;28;20500;-67
2023/12/21 08:36:26;;;;;;;2.70;0.80;;;9.00;99.90;;;;;;5001679;28;20480;-67
2023/12/21 08:38:54;;;;;;;0.80;0.70;;;9.10;99.90;;;;;;4997661;28;20496;-67
2023/12/21 08:41:24;;;;;;;0.83;0.70;;;9.00;99.90;;;;;;5001532;28;20561;-66
2023/12/21 08:43:54;;;;;;;0.60;0.60;;;9.00;99.90;;;;;;5001265;28;20527;-67
2023/12/21 08:46:24;;;;;;;0.60;0.60;;;9.00;99.90;;;;;;5001715;28;20504;-69
2023/12/21 08:48:52;;;;;;;0.70;0.70;;;9.00;99.90;;;;;;5002407;28;20579;-67
2023/12/21 08:51:21;;;;;;;1.07;0.60;;;9.00;99.90;;;;;;4999361;28;20468;-68
2023/12/21 08:53:49;;;;;;;0.53;0.53;;;9.10;99.90;;;;;;4992346;28;20560;-68
2023/12/21 08:56:17;;;;;;;0.80;0.60;;;9.10;99.90;;;;;;4996189;28;20574;-67
2023/12/21 08:58:45;;;;;;;0.47;0.40;;;9.10;99.90;;;;;;4993858;28;20497;-68
2023/12/21 09:01:14;;;;;;;0.70;0.70;;;9.10;99.90;;;;;;4993585;28;20499;-67
2023/12/21 09:03:43;;;;;;;0.80;0.80;;;9.10;99.90;;;;;;4995606;28;20476;-68
2023/12/21 09:06:12;;;;;;;0.90;0.80;;;9.10;99.90;;;;;;4992651;28;20483;-68
2023/12/21 09:08:40;;;;;;;0.77;0.70;;;9.10;99.90;;;;;;4996382;28;20502;-68
2023/12/21 09:11:08;;;;;;;0.60;0.60;;;9.00;99.90;;;;;;4995658;28;20487;-68
2023/12/21 09:13:36;;;;;;;0.70;0.70;;;9.00;99.90;;;;;;4995223;28;20564;-67
2023/12/21 09:16:04;;;;;;;1.13;0.60;;;9.00;99.90;;;;;;4995544;28;20924;-68
2023/12/21 09:18:32;;;;;;;0.70;0.70;;;9.00;99.90;;;;;;4995559;28;20476;-67
2023/12/21 09:21:03;;;;;;;0.67;0.67;;;9.00;99.90;;;;;;4994586;28;20866;-67
2023/12/21 09:23:31;;;;;;;1.10;0.80;;;9.00;99.90;;;;;;4995614;28;21291;-67
2023/12/21 09:25:59;;;;;;;0.90;0.80;;;9.00;99.90;;;;;;4996642;28;20476;-68
2023/12/21 09:28:27;;;;;;;0.60;0.60;;;9.00;99.90;;;;;;5009128;28;20500;-67
2023/12/21 09:30:56;;;;;;;0.73;0.73;;;9.00;99.90;;;;;;5013772;28;20492;-66
2023/12/21 09:33:25;;;;;;;1.00;0.80;;;9.10;99.90;;;;;;5001190;28;20524;-69
2023/12/21 09:35:55;;;;;;;0.80;0.80;;;9.10;99.90;;;;;;4993319;28;21162;-67
2023/12/21 09:38:24;;;;;;;0.77;0.63;;;9.10;99.90;;;;;;4995892;28;20464;-67
2023/12/21 09:40:53;;;;;;;0.83;0.77;;;9.10;99.90;;;;;;4993517;28;20591;-69
2023/12/21 09:43:23;;;;;;;0.90;0.80;;;9.10;99.90;;;;;;4997005;28;20776;-68
2023/12/21 09:45:52;;;;;;;1.13;0.97;;;9.10;99.90;;;;;;4991434;28;20850;-67
2023/12/21 09:48:21;;;;;;;1.67;1.13;;;9.10;99.90;;;;;;4991315;28;21004;-69
2023/12/21 09:50:51;;;;;;;0.80;0.80;;;9.10;99.90;;;;;;4993799;28;20826;-67
2023/12/21 09:53:22;;;;;;;0.90;0.90;;;9.10;99.90;;;;;;5000631;28;20460;-67
2023/12/21 09:55:53;;;;;;;1.23;0.70;;;9.10;99.90;;;;;;4994789;28;20974;-67
2023/12/21 09:58:22;;;;;;;0.80;0.80;;;9.10;99.90;;;;;;4994165;28;20473;-67
2023/12/21 10:00:50;;;;;;;0.77;0.70;;;9.10;99.90;;;;;;4993828;28;20872;-68
2023/12/21 10:03:18;;;;;;;0.70;0.70;;;9.20;99.90;;;;;;4991894;28;20476;-67
2023/12/21 10:05:47;;;;;;;0.73;0.70;;;9.20;99.90;;;;;;4996130;28;20472;-67
2023/12/21 10:08:18;;;;;;;0.60;0.60;;;9.20;99.90;;;;;;4997520;28;20532;-67
2023/12/21 10:10:46;;;;;;;1.00;0.60;;;9.20;99.90;;;;;;4996338;28;20569;-68
2023/12/21 10:13:16;;;;;;;0.70;0.60;;;9.20;99.90;;;;;;4998409;28;21013;-67
2023/12/21 10:15:46;;;;;;;0.60;0.60;;;9.20;99.90;;;;;;4998866;28;20861;-67
2023/12/21 10:18:14;;;;;;;1.03;0.50;;;9.20;99.90;;;;;;4997818;28;20735;-67
2023/12/21 10:20:42;;;;;;;0.60;0.60;;;9.20;99.90;;;;;;4992032;28;20523;-68
2023/12/21 10:23:11;;;;;;;1.07;0.70;;;9.30;99.90;;;;;;4994021;28;20891;-67
2023/12/21 10:25:39;;;;;;;0.47;0.47;;;9.30;99.90;;;;;;4996779;28;20476;-67
2023/12/21 10:28:08;;;;;;;0.50;0.47;;;9.30;99.90;;;;;;4994851;28;20556;-68
2023/12/21 10:30:38;;;;;;;0.50;0.50;;;9.30;99.90;;;;;;4997348;28;20492;-68
2023/12/21 10:33:08;;;;;;;0.50;0.50;;;9.40;99.90;;;;;;4994038;28;20552;-68
2023/12/21 10:35:38;;;;;;;1.13;0.53;;;9.40;99.90;;;;;;4994875;28;20468;-68
2023/12/21 10:38:06;;;;;;;0.50;0.50;;;9.40;99.90;;;;;;4996108;28;20546;-69
2023/12/21 10:40:34;;;;;;;0.50;0.50;;;9.40;99.90;;;;;;4992435;28;20603;-68
2023/12/21 10:43:04;;;;;;;1.03;0.60;;;9.40;99.90;;;;;;4993909;28;20495;-68
2023/12/21 10:45:33;;;;;;;1.60;0.50;;;9.40;99.90;;;;;;4997842;28;21485;-67
2023/12/21 10:48:08;;;;;;;0.97;0.90;;;9.40;99.90;;;;;;4990503;28;20868;-65
2023/12/21 10:50:38;;;;;;;0.83;0.63;;;9.40;99.90;;;;;;4995036;28;20501;-68
2023/12/21 10:53:10;;;;;;;0.83;0.60;;;9.40;99.90;;;;;;4997249;28;20991;-67
2023/12/21 10:55:39;;;;;;;0.90;0.80;;;9.40;99.90;;;;;;4999047;28;20503;-68
2023/12/21 10:58:08;;;;;;;0.80;0.60;;;9.40;99.90;;;;;;4999652;28;20483;-66
2023/12/21 11:00:36;;;;;;;1.63;1.27;;;9.40;99.90;;;;;;4991695;28;20503;-67
2023/12/21 11:03:09;;;;;;;2.17;0.80;;;9.40;99.90;;;;;;4998558;28;22061;-67
2023/12/21 11:05:39;;;;;;;2.10;0.80;;;9.50;99.90;;;;;;5001144;28;20530;-68
2023/12/21 11:08:08;;;;;;;1.33;0.70;;;9.50;99.90;;;;;;4997064;28;20991;-67
2023/12/21 11:10:37;;;;;;;0.90;0.80;;;9.50;99.90;;;;;;4997781;28;20498;-68
2023/12/21 11:13:06;;;;;;;1.10;0.80;;;9.50;99.90;;;;;;5001314;28;20483;-67
2023/12/21 11:15:34;;;;;;;1.60;0.90;;;9.50;99.90;;;;;;5002090;28;20468;-68
2023/12/21 11:18:06;;;;;;;2.27;1.50;;;9.50;99.90;;;;;;5001910;28;20488;-67
2023/12/21 11:20:39;;;;;;;2.40;0.90;;;9.50;99.90;;;;;;4999652;28;20485;-68
2023/12/21 11:23:15;;;;;;;2.80;1.10;;;9.60;99.90;;;;;;4998715;28;20472;-68
2023/12/21 11:25:43;;;;;;;2.07;1.17;;;9.60;99.90;;;;;;5000523;28;20472;-66
2023/12/21 11:28:12;;;;;;;2.53;1.00;;;9.60;99.90;;;;;;4996052;28;20480;-66
2023/12/21 11:30:40;;;;;;;2.73;1.27;;;9.70;99.90;;;;;;4996729;28;20499;-66
2023/12/21 11:33:10;;;;;;;2.20;1.00;;;9.70;99.90;;;;;;4994064;28;20472;-67
2023/12/21 11:35:40;;;;;;;1.83;1.10;;;9.70;99.90;;;;;;4997457;28;20508;-68
2023/12/21 11:38:08;;;;;;;3.33;1.43;;;9.70;99.90;;;;;;5010242;28;20482;-66
2023/12/21 11:40:38;;;;;;;2.87;1.30;;;9.70;99.90;;;;;;5018105;28;20484;-66
2023/12/21 11:43:08;;;;;;;3.17;1.60;;;9.70;99.90;;;;;;5001418;28;20472;-68
2023/12/21 11:45:38;;;;;;;5.17;1.20;;;9.70;99.90;;;;;;4999740;28;20485;-67
2023/12/21 11:48:11;;;;;;;5.50;1.53;;;9.70;99.90;;;;;;4995092;28;21078;-67
2023/12/21 11:50:43;;;;;;;7.77;1.90;;;9.70;99.90;;;;;;4990076;28;20590;-67
2023/12/21 11:53:15;;;;;;;13.80;2.23;;;9.80;99.90;;;;;;4991669;28;21033;-69
2023/12/21 11:55:48;;;;;;;5.70;1.93;;;9.80;99.90;;;;;;4990752;28;20463;-69
2023/12/21 11:58:18;;;;;;;9.20;1.57;;;9.80;99.90;;;;;;4990630;28;20503;-67
2023/12/21 12:00:49;;;;;;;7.00;1.80;;;9.70;99.90;;;;;;4992115;28;20600;-66
2023/12/21 12:03:18;;;;;;;4.80;1.80;;;9.60;99.90;;;;;;4994042;28;20556;-68
2023/12/21 12:05:49;;;;;;;2.93;1.20;;;9.50;99.90;;;;;;4993219;28;20479;-67
2023/12/21 12:08:21;;;;;;;5.07;1.40;;;9.40;99.90;;;;;;4990739;28;20568;-66
2023/12/21 12:10:49;;;;;;;3.00;1.20;;;9.30;99.90;;;;;;4991917;28;20479;-69
2023/12/21 12:13:19;;;;;;;2.43;1.10;;;9.20;99.90;;;;;;4993416;28;20468;-69
2023/12/21 12:15:47;;;;;;;8.97;1.67;;;9.00;99.90;;;;;;4993164;28;20468;-67
2023/12/21 12:18:16;;;;;;;3.00;1.13;;;8.90;99.90;;;;;;4993398;28;21182;-68
2023/12/21 12:20:44;;;;;;;4.10;1.40;;;8.70;99.90;;;;;;4995729;28;20881;-65
2023/12/21 12:23:14;;;;;;;5.37;1.23;;;8.60;99.90;;;;;;4996072;28;20472;-67
2023/12/21 12:25:42;;;;;;;3.50;1.50;;;8.50;99.90;;;;;;4991680;28;20496;-68
2023/12/21 12:28:22;;;;;;;5.93;1.90;;;8.40;99.90;;;;;;4988137;28;20599;-68
2023/12/21 12:30:50;;;;;;;5.73;1.53;;;8.30;99.90;;;;;;4989757;28;20484;-66
2023/12/21 12:33:19;;;;;;;8.23;2.67;;;8.30;99.90;;;;;;4986479;28;20549;-65
2023/12/21 12:35:49;;;;;;;8.17;1.80;;;8.30;99.90;;;;;;4988675;28;20958;-67
2023/12/21 12:38:19;;;;;;;7.97;1.70;;;8.20;99.90;;;;;;4985791;28;20484;-70
2023/12/21 12:40:49;;;;;;;3.33;1.10;;;8.20;99.90;;;;;;4982811;28;20595;-68
2023/12/21 12:43:18;;;;;;;4.63;1.33;;;8.10;99.90;;;;;;4990099;28;20472;-69
2023/12/21 12:45:46;;;;;;;3.67;1.53;;;8.10;99.90;;;;;;4982522;28;20475;-69
2023/12/21 12:48:17;;;;;;;2.13;1.27;;;8.10;99.90;;;;;;4987622;28;20572;-68
2023/12/21 12:50:47;;;;;;;2.60;1.10;;;8.10;99.90;;;;;;4992412;28;20529;-68
2023/12/21 12:53:16;;;;;;;5.47;1.37;;;8.10;99.90;;;;;;4987586;28;20487;-67
2023/12/21 12:55:49;;;;;;;3.03;1.30;;;8.00;99.90;;;;;;4990946;28;20869;-70
2023/12/21 12:58:18;;;;;;;6.90;1.47;;;8.00;99.90;;;;;;4987844;28;20487;-68
2023/12/21 13:00:46;;;;;;;3.07;1.50;;;7.90;99.90;;;;;;4988084;28;20559;-69
2023/12/21 13:03:14;;;;;;;3.37;1.33;;;7.90;99.90;;;;;;4989382;28;20475;-70